• Join FlightAware (Why Join?)
  • Login
  • US Flag 
08:21AM EDT


 

Airport Tracker/Info


-or-


 

Live Flight TrackerFlight Track Log ✈ EJA839 ✈ 20-Apr-2013 ✈ KFCM - KUGN

Flight Track Log - Related Links

Times and Time Zones

All times are in EDT time to prevent confusion due to time zone crossing. See the EJA839 flight status page for this flight to view local times or setup timezone preferences in your user account.

Time Position Orientation Groundspeed Altitude Reporting Facility
EDT Latitude Longitude Course Direction KTS MPH feet Rate Location/Type
04:21PM 44.8264 -93.4975 216° Southwest 187 215 2,300  Level FAA TRACON SMA TRACON (SMA)
04:21PM 44.8106 -93.5136 216° Southwest 189 217 2,400 1,320 Climbing FAA TRACON SMA TRACON (SMA)
04:22PM 44.7956 -93.5231 204° Southwest 187 215 3,200 3,600 Climbing FAA TRACON SMA TRACON (SMA)
04:22PM 44.7800 -93.5331 205° Southwest 196 226 4,800 5,700 Climbing FAA TRACON SMA TRACON (SMA)
04:22PM 44.7606 -93.5472 207° Southwest 205 236 7,000 5,400 Climbing FAA TRACON SMA TRACON (SMA)
04:23PM 44.7431 -93.5564 200° South 213 245 8,400 3,720 Climbing FAA TRACON SMA TRACON (SMA)
04:23PM 44.7236 -93.5594 186° South 225 259 9,500 3,120 Climbing FAA TRACON SMA TRACON (SMA)
04:23PM 44.6983 -93.5453 158° South 256 295 10,500 3,000 Climbing FAA TRACON SMA TRACON (SMA)
04:24PM 44.6819 -93.5181 130° Southeast 282 325 11,500 2,820 Climbing FAA TRACON SMA TRACON (SMA)
04:24PM 44.6681 -93.4869 122° Southeast 301 346 12,400 3,000 Climbing FAA TRACON SMA TRACON (SMA)
04:24PM 44.6558 -93.4422 111° Southeast 318 366 13,500 2,880 Climbing FAA TRACON SMA TRACON (SMA)
04:25PM 44.6447 -93.4044 112° Southeast 333 383 14,300 2,580 Climbing FAA TRACON SMA TRACON (SMA)
04:25PM 44.6336 -93.3653 112° Southeast 344 396 15,200 3,120 Climbing FAA TRACON SMA TRACON (SMA)
04:25PM 44.6192 -93.3150 112° Southeast 359 413 16,400 3,120 Climbing FAA TRACON SMA TRACON (SMA)
04:26PM 44.6078 -93.2747 112° Southeast 363 418 17,300 2,400 Climbing FAA TRACON SMA TRACON (SMA)
04:26PM 44.5958 -93.2339 112° Southeast 364 419 18,000 2,520 Climbing FAA TRACON SMA TRACON (SMA)
04:26PM 44.5817 -93.1814 111° Southeast 372 428 19,000 2,340 Climbing FAA TRACON SMA TRACON (SMA)
04:27PM 44.5697 -93.1383 111° Southeast 380 437 19,600 2,040 Climbing FAA TRACON SMA TRACON (SMA)
04:27PM 44.5547 -93.0831 111° Southeast 391 450 20,400 1,920 Climbing FAA TRACON SMA TRACON (SMA)
04:27PM 44.5422 -93.0372 111° Southeast 401 461 20,900 1,620 Climbing FAA TRACON SMA TRACON (SMA)
04:28PM 44.5292 -92.9922 112° Southeast 407 468 21,500 2,100 Climbing FAA TRACON SMA TRACON (SMA)
04:28PM 44.5100 -92.9372 116° Southeast 412 474 22,300 2,100 Climbing FAA TRACON SMA TRACON (SMA)
04:28PM 44.4922 -92.8939 120° Southeast 415 478 22,900 1,020 Climbing FAA TRACON SMA TRACON (SMA)
04:29PM 44.4750 -92.8494 118° Southeast 418 481 23,000 120 Climbing FAA TRACON SMA TRACON (SMA)
04:29PM 44.4511 -92.7944 121° Southeast 428 493 23,000  Level FAA TRACON SMA TRACON (SMA)
04:29PM 44.4328 -92.7492 120° Southeast 433 498 23,000  Level FAA TRACON SMA TRACON (SMA)
04:30PM 44.4144 -92.7039 120° Southeast 434 499 23,000  Level FAA TRACON SMA TRACON (SMA)
04:30PM 44.3914 -92.6481 120° Southeast 431 496 23,000  Level FAA TRACON SMA TRACON (SMA)
04:30PM 44.3731 -92.6039 120° Southeast 429 494 23,000  Level FAA TRACON SMA TRACON (SMA)
04:31PM 44.3550 -92.5597 120° Southeast 428 493 23,000  Level FAA TRACON SMA TRACON (SMA)
04:31PM 44.3319 -92.5047 120° Southeast 426 490 23,000  Level FAA TRACON SMA TRACON (SMA)
04:31PM 44.3139 -92.4603 120° Southeast 426 490 23,000  Level FAA TRACON SMA TRACON (SMA)
04:32PM 44.2908 -92.4047 120° Southeast 426 490 23,000  Level FAA TRACON SMA TRACON (SMA)
04:32PM 44.2728 -92.3614 120° Southeast 425 489 23,000  Level FAA TRACON SMA TRACON (SMA)
04:32PM 44.2544 -92.3192 121° Southeast 418 481 23,000  Level FAA TRACON SMA TRACON (SMA)
04:33PM 44.2372 -92.2772 120° Southeast 410 472 23,000  Level FAA TRACON SMA TRACON (SMA)
04:33PM 44.2161 -92.2253 120° Southeast 403 464 23,000  Level FAA TRACON SMA TRACON (SMA)
04:35PM 44.1161 -92.0153 124° Southeast 390 449 23,000  Level Minneapolis Center
04:36PM 44.0606 -91.8903 122° Southeast 384 442 23,000  Level Minneapolis Center
04:37PM 44.0067 -91.7633 121° Southeast 384 442 23,000  Level Minneapolis Center
04:38PM 43.9464 -91.6294 122° Southeast 382 440 23,000  Level Minneapolis Center
04:39PM 43.8914 -91.5031 121° Southeast 384 442 23,000  Level Minneapolis Center
04:40PM 43.8361 -91.3775 121° Southeast 384 442 23,000  Level Minneapolis Center
04:41PM 43.7803 -91.2525 122° Southeast 384 442 23,000  Level Minneapolis Center
04:42PM 43.7244 -91.1250 121° Southeast 387 445 23,000  Level Minneapolis Center
04:43PM 43.6669 -91.0014 123° Southeast 385 443 23,000  Level Minneapolis Center
04:44PM 43.6117 -90.8758 121° Southeast 385 443 23,000  Level Minneapolis Center
04:45PM 43.5431 -90.7253 122° Southeast 388 447 23,000  Level Minneapolis Center
04:46PM 43.4861 -90.6006 122° Southeast 387 445 23,000  Level Minneapolis Center
04:47PM 43.4294 -90.4753 122° Southeast 387 445 23,000  Level Minneapolis Center
04:48PM 43.3714 -90.3497 122° Southeast 389 448 23,000  Level Minneapolis Center
04:48PM 43.3606 -90.3250 121° Southeast 390 449 23,000 -120 Level Chicago Center
04:49PM 43.2833 -90.1917 128° Southeast 382 440 22,900 -1,140 Descending Chicago Center
04:50PM 43.2058 -90.0742 132° Southeast 410 472 20,700 -2,280 Descending Chicago Center
04:51PM 43.1242 -89.9517 132° Southeast 422 486 18,300 -2,160 Descending Chicago Center
04:52PM 43.0503 -89.8397 132° Southeast 409 471 16,300 -2,280 Descending Chicago Center
04:53PM 42.9658 -89.7133 132° Southeast 388 447 13,700 -2,280 Descending Chicago Center
04:54PM 42.8983 -89.6106 132° Southeast 368 423 11,700 -1,320 Descending Chicago Center
04:55PM 42.8331 -89.5139 133° Southeast 350 403 11,100 -300 Descending Chicago Center
04:56PM 42.7675 -89.4161 132° Southeast 350 403 11,100 -60 Level Chicago Center
04:58PM 42.7025 -89.3200 133° Southeast 348 400 11,000 -780 Descending Chicago Center
04:59PM 42.6428 -89.2300 132° Southeast 321 369 9,500 -1,440 Descending Chicago Center
05:00PM 42.5908 -89.1311 125° Southeast 274 315 8,100 -720 Descending Chicago Center
05:01PM 42.5583 -89.0356 115° Southeast 278 320 8,100  Level Chicago Center
05:02PM 42.5256 -88.9414 115° Southeast 278 320 8,100 -120 Level Chicago Center
05:03PM 42.4928 -88.8444 115° Southeast 281 323 7,900 -600 Descending Chicago Center
05:04PM 42.4617 -88.7519 114° Southeast 275 316 6,900 -960 Descending Chicago Center
05:05PM 42.4308 -88.6633 115° Southeast 266 306 6,000 -900 Descending Chicago Center
05:06PM 42.4053 -88.5550 108° East 266 306 5,100 -540 Descending Chicago Center
05:07PM 42.4042 -88.4572 91° East 260 299 5,000 -60 Descending Chicago Center
05:08PM 42.4019 -88.3600 92° East 261 300 5,000 -120 Level Chicago Center
05:09PM 42.4003 -88.2631 91° East 260 299 4,800 -540 Descending Chicago Center
05:10PM 42.4003 -88.1767 90° East 244 281 4,000 -420 Descending Chicago Center
05:11PM 42.3958 -88.0986 94° East 228 262 4,000 -540 Level Chicago Center
05:12PM 42.3772 -88.0294 110° East 203 234 3,000 -720 Descending Chicago Center
05:13PM 42.3597 -87.9500 107° East 203 234 2,600 -420 Descending Chicago Center
05:16PM 42.4167 -87.8667 132° Southeast  Level FlightAware Approximate